Time;durP1;ratioP1;P1;durP2;ratioP2;P2;SDS_P1;SDS_P2;PMS_P1;PMS_P2;Temp;Humidity;BMP_temperature;BMP_pressure;BME280_temperature;BME280_humidity;BME280_pressure;Samples;Min_cycle;Max_cycle;Signal;HPM_P1;HPM_P2
2021/07/31 00:01:08;;;;;;;12.02;9.25;;;21.60;1.00;;;;;;5071681;28;20025;-81
2021/07/31 00:03:37;;;;;;;11.32;9.15;;;21.40;1.00;;;;;;5069535;28;20111;-81
2021/07/31 00:06:04;;;;;;;11.23;9.02;;;21.40;1.00;;;;;;5069396;28;20024;-81
2021/07/31 00:08:30;;;;;;;10.43;9.35;;;21.40;1.00;;;;;;5069573;28;20081;-81
2021/07/31 00:10:56;;;;;;;10.55;9.07;;;21.50;1.00;;;;;;5047252;28;20036;-81
2021/07/31 00:13:23;;;;;;;9.88;8.77;;;21.50;1.00;;;;;;5050121;28;20025;-81
2021/07/31 00:15:49;;;;;;;11.45;9.55;;;21.40;1.00;;;;;;5047814;28;20090;-81
2021/07/31 00:18:14;;;;;;;9.63;8.63;;;21.40;1.00;;;;;;5049178;28;20119;-81
2021/07/31 00:20:40;;;;;;;9.88;8.85;;;21.40;1.00;;;;;;5049524;28;20032;-81
2021/07/31 00:23:06;;;;;;;10.60;9.10;;;21.40;1.00;;;;;;5049880;28;20029;-81
2021/07/31 00:25:32;;;;;;;11.18;8.57;;;21.30;1.00;;;;;;5050391;28;20017;-81
2021/07/31 00:27:58;;;;;;;12.27;9.35;;;21.30;1.00;;;;;;5050140;28;20021;-81
2021/07/31 00:30:26;;;;;;;10.30;9.07;;;21.30;1.00;;;;;;5049775;28;20025;-81
2021/07/31 00:32:52;;;;;;;10.60;8.50;;;21.30;1.00;;;;;;5054334;28;20043;-81
2021/07/31 00:35:18;;;;;;;12.35;9.20;;;21.30;1.00;;;;;;5052232;28;20029;-81
2021/07/31 00:37:43;;;;;;;12.65;9.27;;;21.30;1.00;;;;;;5053255;28;20045;-81
2021/07/31 00:40:09;;;;;;;12.57;9.50;;;21.20;1.00;;;;;;5054156;28;20021;-81
2021/07/31 00:42:39;;;;;;;10.02;9.02;;;21.10;1.00;;;;;;5053427;28;20128;-81
2021/07/31 00:45:06;;;;;;;10.40;9.43;;;21.10;1.00;;;;;;5053426;28;20067;-81
2021/07/31 00:47:32;;;;;;;10.20;9.07;;;21.10;1.00;;;;;;5052940;28;20032;-81
2021/07/31 00:49:58;;;;;;;10.55;8.73;;;21.00;1.00;;;;;;5051850;28;20721;-81
2021/07/31 00:52:24;;;;;;;13.40;9.68;;;20.90;1.00;;;;;;5053632;28;20040;-81
2021/07/31 00:54:50;;;;;;;11.02;9.50;;;20.90;1.00;;;;;;5052176;28;20415;-81
2021/07/31 00:57:17;;;;;;;14.35;10.02;;;20.90;1.00;;;;;;5053150;28;20033;-81
2021/07/31 00:59:43;;;;;;;11.93;9.80;;;20.90;1.00;;;;;;5052557;28;20067;-81
2021/07/31 01:02:08;;;;;;;11.65;10.05;;;21.00;1.00;;;;;;5053355;28;20065;-80
2021/07/31 01:04:34;;;;;;;11.48;9.40;;;21.00;1.00;;;;;;5053705;28;20021;-81
2021/07/31 01:07:00;;;;;;;12.10;10.00;;;21.10;1.00;;;;;;5054342;28;20036;-81
2021/07/31 01:09:25;;;;;;;11.90;9.38;;;21.10;1.00;;;;;;5052832;28;20032;-81
2021/07/31 01:11:51;;;;;;;12.48;9.38;;;20.90;1.00;;;;;;5069323;28;20044;-81
2021/07/31 01:14:17;;;;;;;10.65;9.65;;;21.00;1.00;;;;;;5054466;28;20024;-81
2021/07/31 01:16:44;;;;;;;10.52;8.93;;;21.00;1.00;;;;;;5072551;28;20047;-81
2021/07/31 01:19:09;;;;;;;10.85;9.02;;;21.10;1.00;;;;;;5074984;28;20020;-81
2021/07/31 01:21:39;;;;;;;13.82;9.60;;;21.10;1.00;;;;;;5072847;28;20040;-81
2021/07/31 01:24:06;;;;;;;11.05;9.88;;;21.10;1.00;;;;;;5072539;28;20017;-80
2021/07/31 01:26:39;;;;;;;10.95;9.68;;;21.00;1.00;;;;;;5072306;28;20024;-81
2021/07/31 01:29:07;;;;;;;13.30;10.02;;;20.90;1.00;;;;;;5070780;28;20397;-81
2021/07/31 01:31:34;;;;;;;12.00;10.13;;;21.00;1.00;;;;;;5058020;28;20115;-81
2021/07/31 01:34:00;;;;;;;12.45;10.30;;;20.80;1.00;;;;;;5072391;28;20028;-81
2021/07/31 01:36:26;;;;;;;11.48;10.07;;;20.70;1.00;;;;;;5072047;28;20443;-81
2021/07/31 01:38:51;;;;;;;12.75;10.18;;;20.70;1.00;;;;;;5072131;28;20115;-80
2021/07/31 01:41:18;;;;;;;12.25;9.60;;;20.70;1.00;;;;;;5072115;28;20059;-81
2021/07/31 01:43:43;;;;;;;11.00;9.90;;;20.80;1.00;;;;;;5070994;28;20095;-80
2021/07/31 01:46:09;;;;;;;12.70;9.23;;;20.80;1.00;;;;;;5074047;28;20024;-81
2021/07/31 01:48:35;;;;;;;10.82;9.73;;;20.80;1.00;;;;;;5072060;28;20039;-81
2021/07/31 01:51:00;;;;;;;11.85;9.57;;;20.80;1.00;;;;;;5058905;28;20027;-81
2021/07/31 01:53:26;;;;;;;11.32;8.93;;;20.80;1.00;;;;;;5071778;28;20489;-81
2021/07/31 01:55:52;;;;;;;14.68;9.80;;;20.80;1.00;;;;;;5072137;28;20021;-81
2021/07/31 01:58:17;;;;;;;10.57;9.27;;;20.80;1.00;;;;;;5073851;28;20058;-81
2021/07/31 02:00:43;;;;;;;13.25;9.50;;;20.90;1.00;;;;;;5072164;28;20441;-80
2021/07/31 02:03:09;;;;;;;16.25;10.13;;;20.80;1.00;;;;;;5071501;28;20028;-81
2021/07/31 02:05:34;;;;;;;12.77;9.40;;;20.80;1.00;;;;;;5071717;28;20033;-81
2021/07/31 02:08:00;;;;;;;11.57;9.30;;;20.80;1.00;;;;;;5070351;28;20017;-81
2021/07/31 02:10:26;;;;;;;11.55;9.15;;;20.90;1.00;;;;;;5073018;28;20072;-81
2021/07/31 02:12:52;;;;;;;12.85;9.20;;;20.90;1.00;;;;;;5071285;28;20373;-81
2021/07/31 02:15:18;;;;;;;9.80;8.80;;;21.00;1.00;;;;;;5071611;28;20489;-80
2021/07/31 02:17:43;;;;;;;10.98;9.85;;;21.00;1.00;;;;;;5073568;28;20064;-81
2021/07/31 02:20:09;;;;;;;13.52;9.23;;;21.10;1.00;;;;;;5071964;28;20020;-81
2021/07/31 02:22:35;;;;;;;12.68;9.18;;;21.00;1.00;;;;;;5072359;28;20033;-80
2021/07/31 02:25:01;;;;;;;11.75;10.15;;;21.10;1.00;;;;;;5072877;28;20481;-80
2021/07/31 02:27:27;;;;;;;14.73;10.05;;;21.00;1.00;;;;;;5071309;28;20025;-81
2021/07/31 02:29:52;;;;;;;11.77;10.10;;;20.90;1.00;;;;;;5071309;28;20074;-81
2021/07/31 02:32:18;;;;;;;12.15;10.27;;;20.90;1.00;;;;;;5053407;28;20492;-80
2021/07/31 02:34:44;;;;;;;11.88;10.10;;;20.90;1.00;;;;;;5071654;28;20043;-80
2021/07/31 02:37:10;;;;;;;14.00;10.38;;;20.90;1.00;;;;;;5073592;28;20044;-80
2021/07/31 02:39:35;;;;;;;13.07;10.45;;;20.90;1.00;;;;;;5070455;28;20024;-81
2021/07/31 02:42:02;;;;;;;12.93;10.65;;;20.90;1.00;;;;;;5070908;28;20025;-81
2021/07/31 02:44:27;;;;;;;14.68;9.63;;;20.90;1.00;;;;;;5071875;28;20035;-80
2021/07/31 02:46:53;;;;;;;12.15;10.10;;;21.00;1.00;;;;;;5069747;28;20116;-80
2021/07/31 02:49:18;;;;;;;12.25;10.40;;;21.00;1.00;;;;;;5073030;28;20059;-81
2021/07/31 02:51:44;;;;;;;12.20;10.50;;;21.00;1.00;;;;;;5069677;28;20029;-81
2021/07/31 02:54:10;;;;;;;11.95;10.25;;;20.90;1.00;;;;;;5070376;28;20082;-81
2021/07/31 02:56:35;;;;;;;11.52;10.27;;;20.80;1.00;;;;;;5071234;28;20032;-81
2021/07/31 02:59:01;;;;;;;14.10;11.05;;;20.90;1.00;;;;;;5070983;28;20032;-81
2021/07/31 03:01:27;;;;;;;12.40;9.95;;;20.90;1.00;;;;;;5072323;28;20028;-81
2021/07/31 03:03:54;;;;;;;14.15;9.60;;;20.90;1.00;;;;;;5072010;28;20060;-81
2021/07/31 03:06:20;;;;;;;11.68;10.48;;;20.90;1.00;;;;;;5070521;28;20020;-81
2021/07/31 03:08:45;;;;;;;12.48;10.75;;;21.00;1.00;;;;;;5070045;28;20085;-81
2021/07/31 03:11:11;;;;;;;11.35;10.20;;;21.00;1.00;;;;;;5071094;28;20041;-80
2021/07/31 03:13:37;;;;;;;11.35;10.15;;;21.00;1.00;;;;;;5071161;28;20442;-80
2021/07/31 03:16:04;;;;;;;10.60;9.35;;;21.00;1.00;;;;;;5072215;28;20075;-80
2021/07/31 03:18:30;;;;;;;10.88;9.68;;;21.00;1.00;;;;;;5070731;28;20040;-81
2021/07/31 03:20:55;;;;;;;13.13;9.80;;;20.90;1.00;;;;;;5070188;28;20028;-81
2021/07/31 03:23:22;;;;;;;12.73;9.60;;;20.90;1.00;;;;;;5070763;28;20028;-81
2021/07/31 03:25:48;;;;;;;12.30;9.35;;;20.80;1.00;;;;;;5069316;28;20020;-81
2021/07/31 03:28:15;;;;;;;11.48;10.27;;;20.90;1.00;;;;;;5071521;28;20037;-81
2021/07/31 03:30:45;;;;;;;11.88;9.60;;;20.70;1.00;;;;;;5068887;28;20024;-81
2021/07/31 03:33:12;;;;;;;13.98;9.98;;;20.60;1.00;;;;;;5069803;28;20103;-81
2021/07/31 03:35:40;;;;;;;14.98;9.02;;;20.70;1.00;;;;;;5054599;28;20043;-81
2021/07/31 03:38:06;;;;;;;12.73;8.57;;;20.70;1.00;;;;;;5069877;28;20108;-81
2021/07/31 03:40:32;;;;;;;10.60;8.70;;;20.70;1.00;;;;;;5055907;28;20354;-80
2021/07/31 03:42:58;;;;;;;10.90;8.80;;;20.70;1.00;;;;;;5071073;28;20472;-80
2021/07/31 03:45:24;;;;;;;10.55;9.05;;;20.70;1.00;;;;;;5070060;28;20063;-81
2021/07/31 03:47:50;;;;;;;10.57;8.75;;;20.70;1.00;;;;;;5070000;28;20048;-81
2021/07/31 03:50:15;;;;;;;11.70;8.50;;;20.60;1.00;;;;;;5070107;28;20032;-80
2021/07/31 03:52:41;;;;;;;9.75;8.15;;;20.60;1.00;;;;;;5052809;28;20025;-81
2021/07/31 03:55:08;;;;;;;11.10;8.63;;;20.60;1.00;;;;;;5072131;28;20033;-81
2021/07/31 03:57:34;;;;;;;12.07;8.40;;;20.60;1.00;;;;;;5069362;28;20557;-81
2021/07/31 04:00:00;;;;;;;9.48;8.27;;;20.50;1.00;;;;;;5069929;28;20029;-81
2021/07/31 04:02:26;;;;;;;10.35;8.65;;;20.60;1.00;;;;;;5070068;28;20060;-81
2021/07/31 04:04:52;;;;;;;10.32;8.18;;;20.60;1.00;;;;;;5068225;28;20055;-80
2021/07/31 04:07:18;;;;;;;9.38;8.45;;;20.60;1.00;;;;;;5070975;28;20066;-80
2021/07/31 04:09:44;;;;;;;9.45;7.93;;;20.60;1.00;;;;;;5068066;28;20051;-81
2021/07/31 04:12:09;;;;;;;12.32;8.52;;;20.60;1.00;;;;;;5069728;28;20386;-81
2021/07/31 04:14:35;;;;;;;10.98;8.30;;;20.60;1.00;;;;;;5069664;28;20381;-81
2021/07/31 04:17:02;;;;;;;11.57;7.72;;;20.60;1.00;;;;;;5069890;28;20497;-81
2021/07/31 04:19:28;;;;;;;11.50;8.25;;;20.50;1.00;;;;;;5070804;28;20028;-80
2021/07/31 04:21:56;;;;;;;10.18;7.93;;;20.60;1.00;;;;;;5069613;28;20028;-81
2021/07/31 04:24:28;;;;;;;10.75;8.00;;;20.60;1.00;;;;;;5069351;28;20024;-81
2021/07/31 04:26:54;;;;;;;10.35;7.75;;;20.50;1.00;;;;;;5069358;28;20119;-81
2021/07/31 04:29:20;;;;;;;10.73;7.95;;;20.50;1.00;;;;;;5070669;28;20120;-80
2021/07/31 04:31:46;;;;;;;8.27;7.13;;;20.50;1.00;;;;;;5069476;28;20029;-81
2021/07/31 04:34:11;;;;;;;11.10;7.90;;;20.50;1.00;;;;;;5071335;28;20024;-81
2021/07/31 04:36:37;;;;;;;9.70;7.88;;;20.50;1.00;;;;;;5068857;28;20040;-81
2021/07/31 04:39:04;;;;;;;10.15;7.80;;;20.50;1.00;;;;;;5069282;28;20029;-81
2021/07/31 04:41:30;;;;;;;8.60;7.10;;;20.50;1.00;;;;;;5069083;28;20516;-80
2021/07/31 04:43:56;;;;;;;10.65;7.72;;;20.50;1.00;;;;;;5067652;28;20021;-81
2021/07/31 04:46:22;;;;;;;10.85;7.68;;;20.40;1.00;;;;;;5071320;28;20020;-80
2021/07/31 04:48:47;;;;;;;9.15;7.20;;;20.50;1.00;;;;;;5067333;28;20097;-80
2021/07/31 04:51:13;;;;;;;12.50;7.53;;;20.60;1.00;;;;;;5069647;28;20027;-80
2021/07/31 04:53:39;;;;;;;9.02;6.80;;;20.60;1.00;;;;;;5069207;28;20036;-81
2021/07/31 04:56:05;;;;;;;8.27;6.85;;;20.50;1.00;;;;;;5068987;28;20407;-81
2021/07/31 04:58:30;;;;;;;9.93;7.20;;;20.50;1.00;;;;;;5071010;28;20047;-80
2021/07/31 05:00:59;;;;;;;9.07;6.55;;;20.60;1.00;;;;;;5069822;28;20017;-81
2021/07/31 05:03:25;;;;;;;8.25;6.93;;;20.70;1.00;;;;;;5068853;28;20037;-81
2021/07/31 05:05:51;;;;;;;7.78;6.97;;;20.60;1.00;;;;;;5069139;28;20055;-80
2021/07/31 05:08:17;;;;;;;7.60;6.82;;;20.70;1.00;;;;;;5069134;28;20056;-80
2021/07/31 05:10:45;;;;;;;8.65;6.70;;;20.80;1.00;;;;;;5068864;28;20041;-80
2021/07/31 05:13:11;;;;;;;8.85;6.38;;;20.80;1.00;;;;;;5071052;28;20032;-81
2021/07/31 05:15:39;;;;;;;6.82;6.13;;;20.70;1.00;;;;;;5068871;28;20025;-81
2021/07/31 05:18:05;;;;;;;7.78;6.30;;;20.80;1.00;;;;;;5075453;22;20124;-81
2021/07/31 05:20:31;;;;;;;7.18;5.88;;;20.80;1.00;;;;;;5037290;28;20029;-81
2021/07/31 05:22:57;;;;;;;8.15;6.10;;;20.70;1.00;;;;;;5033042;28;20554;-81
2021/07/31 05:25:24;;;;;;;7.35;6.03;;;20.70;1.00;;;;;;5038064;28;20055;-81
2021/07/31 05:27:49;;;;;;;10.07;6.20;;;20.70;1.00;;;;;;5037481;28;20088;-81
2021/07/31 05:30:15;;;;;;;8.27;6.15;;;20.70;1.00;;;;;;5036657;28;20378;-81
2021/07/31 05:32:41;;;;;;;7.07;6.07;;;20.70;1.00;;;;;;5036794;28;20021;-82
2021/07/31 05:35:07;;;;;;;8.55;5.90;;;20.60;1.00;;;;;;5034434;28;20378;-82
2021/07/31 05:37:33;;;;;;;7.03;5.38;;;20.40;1.00;;;;;;5035656;28;20041;-81
2021/07/31 05:40:02;;;;;;;8.57;5.78;;;20.30;1.00;;;;;;5037423;28;20048;-81
2021/07/31 05:42:28;;;;;;;6.70;5.50;;;20.50;1.00;;;;;;5036549;28;20025;-81
2021/07/31 05:44:59;;;;;;;5.28;4.60;;;20.60;1.00;;;;;;5037123;28;20504;-82
2021/07/31 05:47:28;;;;;;;8.25;4.72;;;20.80;1.00;;;;;;5036163;28;20120;-81
2021/07/31 05:49:58;;;;;;;5.85;5.00;;;20.70;1.00;;;;;;5016466;28;20040;-81
2021/07/31 05:52:26;;;;;;;5.65;4.60;;;20.70;1.00;;;;;;5046551;28;20116;-81
2021/07/31 05:54:58;;;;;;;5.60;4.45;;;20.80;1.00;;;;;;5035652;28;20448;-82
2021/07/31 05:57:24;;;;;;;5.80;4.30;;;20.80;1.00;;;;;;5026028;28;20037;-83
2021/07/31 05:59:50;;;;;;;7.28;4.35;;;20.70;1.00;;;;;;5036167;28;20029;-82
2021/07/31 06:02:16;;;;;;;6.68;4.38;;;20.60;1.00;;;;;;5033775;28;20028;-83
2021/07/31 06:04:41;;;;;;;5.05;4.55;;;20.50;1.00;;;;;;5034167;28;20152;-82
2021/07/31 06:07:10;;;;;;;7.60;4.28;;;20.40;1.00;;;;;;5036887;28;20033;-86
2021/07/31 06:09:40;;;;;;;7.05;4.35;;;20.40;1.00;;;;;;5035882;28;20017;-82
2021/07/31 06:12:07;;;;;;;5.10;4.22;;;20.40;1.00;;;;;;5036118;28;20079;-82
2021/07/31 06:14:35;;;;;;;6.07;4.32;;;20.30;1.00;;;;;;5028919;28;20029;-83
2021/07/31 06:17:01;;;;;;;6.68;4.30;;;20.50;1.00;;;;;;5032338;28;20733;-85
2021/07/31 06:19:30;;;;;;;5.10;3.55;;;20.50;1.00;;;;;;5036532;28;20040;-83
2021/07/31 06:21:59;;;;;;;4.88;4.07;;;20.60;1.00;;;;;;5037261;28;20577;-82
2021/07/31 06:24:26;;;;;;;6.97;4.30;;;20.60;1.00;;;;;;5036290;28;20505;-82
2021/07/31 06:26:52;;;;;;;8.07;4.63;;;20.60;1.00;;;;;;5036001;28;20025;-80
2021/07/31 06:29:18;;;;;;;6.05;4.00;;;20.60;1.00;;;;;;5034621;28;20527;-81
2021/07/31 06:31:44;;;;;;;5.25;3.50;;;20.50;1.00;;;;;;5032414;28;20033;-81
2021/07/31 06:34:09;;;;;;;5.38;3.92;;;20.50;1.00;;;;;;5038152;28;20049;-83
2021/07/31 06:36:36;;;;;;;5.07;3.67;;;20.70;1.00;;;;;;5034099;28;20052;-83
2021/07/31 06:39:03;;;;;;;5.25;3.65;;;20.80;1.00;;;;;;5035796;28;20083;-81
2021/07/31 06:41:28;;;;;;;8.05;3.90;;;20.70;1.00;;;;;;5034851;28;20420;-82
2021/07/31 06:43:56;;;;;;;5.65;3.83;;;20.60;1.00;;;;;;5030120;28;20026;-82
2021/07/31 06:46:25;;;;;;;5.28;3.78;;;20.70;1.00;;;;;;5044476;28;20505;-82
2021/07/31 06:48:53;;;;;;;4.60;3.80;;;20.80;1.00;;;;;;5035799;28;20041;-81
2021/07/31 06:51:20;;;;;;;5.65;3.72;;;20.80;1.00;;;;;;5035600;28;20034;-80
2021/07/31 06:53:47;;;;;;;4.93;3.58;;;20.90;1.00;;;;;;5035825;28;20061;-82
2021/07/31 06:56:13;;;;;;;6.82;3.88;;;20.90;1.00;;;;;;5033654;28;20033;-81
2021/07/31 06:58:39;;;;;;;3.72;3.20;;;21.10;1.00;;;;;;5032984;28;20037;-82
2021/07/31 07:01:14;;;;;;;6.35;3.10;;;21.10;1.00;;;;;;5034740;28;20156;-81
2021/07/31 07:03:41;;;;;;;5.43;3.20;;;21.20;1.00;;;;;;5035324;28;20029;-81
2021/07/31 07:06:08;;;;;;;6.72;2.80;;;21.20;1.00;;;;;;5035246;28;20443;-83
2021/07/31 07:08:34;;;;;;;5.80;2.67;;;21.20;1.00;;;;;;5035760;28;20155;-82
2021/07/31 07:11:00;;;;;;;5.78;2.60;;;21.40;1.00;;;;;;5032076;28;20140;-80
2021/07/31 07:13:26;;;;;;;7.05;3.00;;;21.40;1.00;;;;;;5035950;28;20026;-82
2021/07/31 07:15:51;;;;;;;3.08;2.38;;;21.40;99.90;;;;;;5035113;28;20065;-83
2021/07/31 07:18:17;;;;;;;4.05;2.50;;;21.50;99.90;;;;;;5034618;28;20077;-82
2021/07/31 07:20:43;;;;;;;4.28;2.58;;;21.40;99.90;;;;;;5034159;28;20507;-83
2021/07/31 07:23:09;;;;;;;4.65;2.22;;;21.30;99.90;;;;;;5031548;28;20025;-82
2021/07/31 07:25:35;;;;;;;4.20;2.42;;;21.30;99.90;;;;;;5033662;28;20029;-82
2021/07/31 07:28:01;;;;;;;4.32;2.53;;;21.40;99.90;;;;;;5036147;28;20025;-83
2021/07/31 07:30:27;;;;;;;4.35;2.65;;;21.60;99.90;;;;;;5033910;28;20485;-82
2021/07/31 07:32:54;;;;;;;3.05;1.90;;;21.60;99.90;;;;;;5034979;28;20045;-82
2021/07/31 07:35:20;;;;;;;3.65;2.10;;;21.70;99.90;;;;;;5034158;28;20404;-83
2021/07/31 07:37:47;;;;;;;5.05;2.30;;;22.00;99.90;;;;;;5030984;28;20586;-82
2021/07/31 07:40:13;;;;;;;5.05;2.40;;;22.10;99.90;;;;;;5035269;28;20116;-83
2021/07/31 07:42:39;;;;;;;4.80;2.70;;;22.00;99.90;;;;;;5024482;28;20528;-84
2021/07/31 07:45:06;;;;;;;4.93;2.03;;;22.20;99.90;;;;;;5034175;28;20029;-82
2021/07/31 07:47:31;;;;;;;5.47;2.40;;;22.50;99.90;;;;;;5027270;28;20106;-83
2021/07/31 07:49:58;;;;;;;5.78;2.00;;;22.90;99.90;;;;;;5030548;28;20034;-83
2021/07/31 07:52:24;;;;;;;4.63;2.20;;;23.40;99.90;;;;;;5036247;28;20461;-83
2021/07/31 07:54:50;;;;;;;2.85;1.90;;;23.20;99.90;;;;;;5033415;28;20033;-83
2021/07/31 07:57:15;;;;;;;5.50;1.90;;;23.40;99.90;;;;;;5034159;28;20033;-83
2021/07/31 07:59:41;;;;;;;4.05;2.00;;;23.50;99.90;;;;;;5032980;28;20033;-83
2021/07/31 08:02:07;;;;;;;7.22;2.05;;;23.50;99.90;;;;;;5029994;28;20022;-82
2021/07/31 08:04:36;;;;;;;4.65;2.20;;;23.30;99.90;;;;;;5030669;28;20382;-82
2021/07/31 08:07:02;;;;;;;3.65;1.95;;;23.30;99.90;;;;;;5033383;28;20485;-82
2021/07/31 08:09:28;;;;;;;5.15;2.10;;;23.50;99.90;;;;;;5034515;28;20401;-83
2021/07/31 08:11:54;;;;;;;4.63;1.83;;;23.80;99.90;;;;;;5034318;28;20971;-83
2021/07/31 08:14:20;;;;;;;7.47;2.00;;;24.10;99.90;;;;;;5032864;28;20079;-83
2021/07/31 08:16:46;;;;;;;6.82;1.70;;;23.90;99.90;;;;;;5031118;28;20049;-84
2021/07/31 08:19:11;;;;;;;4.20;1.92;;;23.90;99.90;;;;;;5035805;28;20081;-82
2021/07/31 08:21:38;;;;;;;5.53;1.90;;;24.30;99.90;;;;;;5033973;28;20497;-84
2021/07/31 08:24:05;;;;;;;7.38;2.13;;;24.60;99.90;;;;;;5033932;28;20030;-81
2021/07/31 08:26:30;;;;;;;5.47;1.80;;;24.70;99.90;;;;;;5033855;28;20036;-82
2021/07/31 08:28:56;;;;;;;7.32;1.95;;;24.80;99.90;;;;;;5027329;28;20026;-81
2021/07/31 08:31:22;;;;;;;5.50;2.00;;;25.00;99.90;;;;;;5036082;28;20025;-83
2021/07/31 08:33:47;;;;;;;4.07;2.08;;;24.50;99.90;;;;;;5032621;28;20029;-83
2021/07/31 08:36:13;;;;;;;4.13;1.83;;;24.60;99.90;;;;;;5033610;28;20042;-83
2021/07/31 08:38:39;;;;;;;3.63;1.83;;;24.50;99.90;;;;;;5032398;28;20075;-83
2021/07/31 08:41:05;;;;;;;4.45;2.17;;;24.40;99.90;;;;;;5029235;28;20030;-82
2021/07/31 08:43:31;;;;;;;4.10;1.88;;;24.50;99.90;;;;;;5033593;28;20467;-83
2021/07/31 08:45:58;;;;;;;4.57;2.13;;;24.50;99.90;;;;;;5034400;28;20116;-83
2021/07/31 08:48:28;;;;;;;4.05;1.80;;;24.60;99.90;;;;;;5033821;28;20438;-83
2021/07/31 08:50:57;;;;;;;7.22;2.28;;;24.80;99.90;;;;;;5033740;28;20128;-83
2021/07/31 08:53:25;;;;;;;3.72;1.77;;;24.90;99.90;;;;;;5037537;28;20029;-84
2021/07/31 08:55:50;;;;;;;4.38;2.35;;;25.40;99.90;;;;;;5033386;28;20381;-83
2021/07/31 08:58:16;;;;;;;5.55;1.83;;;25.30;99.90;;;;;;5039307;28;20033;-83
2021/07/31 09:00:42;;;;;;;6.05;1.90;;;25.40;99.90;;;;;;5027501;28;20480;-83
2021/07/31 09:03:08;;;;;;;5.65;2.08;;;25.70;99.90;;;;;;5037468;28;20060;-83
2021/07/31 09:05:37;;;;;;;3.67;2.17;;;25.40;99.90;;;;;;5037408;28;20070;-83
2021/07/31 09:08:04;;;;;;;5.53;1.80;;;25.40;99.90;;;;;;5034024;28;20505;-83
2021/07/31 09:10:32;;;;;;;4.68;1.90;;;25.00;99.90;;;;;;5037776;28;20024;-83
2021/07/31 09:13:10;;;;;;;5.13;2.20;;;24.70;99.90;;;;;;5037918;28;20017;-83
2021/07/31 09:15:41;;;;;;;5.30;2.03;;;24.50;99.90;;;;;;5037356;28;20033;-83
2021/07/31 09:18:25;;;;;;;6.25;2.78;;;24.30;99.90;;;;;;5035918;28;20046;-83
2021/07/31 09:21:06;;;;;;;6.18;2.20;;;24.40;99.90;;;;;;5035652;28;20053;-83
2021/07/31 09:23:48;;;;;;;2.92;2.08;;;24.50;99.90;;;;;;5026670;28;20040;-83
2021/07/31 09:26:31;;;;;;;3.67;2.20;;;24.80;99.90;;;;;;5048292;28;20406;-82
2021/07/31 09:28:59;;;;;;;3.50;1.88;;;25.30;99.90;;;;;;5000268;28;20026;-82
2021/07/31 09:31:25;;;;;;;2.88;1.77;;;25.50;99.90;;;;;;5038567;28;20441;-83
2021/07/31 09:33:51;;;;;;;4.53;2.03;;;25.20;99.90;;;;;;5037339;28;20045;-83
2021/07/31 09:36:17;;;;;;;2.63;1.88;;;24.50;99.90;;;;;;5027133;28;20417;-84
2021/07/31 09:38:48;;;;;;;6.20;2.15;;;24.50;99.90;;;;;;5032406;28;20517;-83
2021/07/31 09:41:32;;;;;;;4.90;2.25;;;24.40;99.90;;;;;;5031686;28;20481;-83
2021/07/31 09:44:07;;;;;;;6.55;2.38;;;24.40;99.90;;;;;;5031670;28;20483;-82
2021/07/31 09:46:34;;;;;;;5.18;2.22;;;24.50;99.90;;;;;;5035467;28;20034;-83
2021/07/31 09:49:01;;;;;;;4.35;2.28;;;24.40;99.90;;;;;;5032772;28;20370;-84
2021/07/31 09:51:39;;;;;;;5.68;2.00;;;24.40;99.90;;;;;;5033829;28;20056;-84
2021/07/31 09:54:09;;;;;;;6.18;1.73;;;24.90;99.90;;;;;;5033232;28;20410;-83
2021/07/31 09:56:56;;;;;;;7.10;2.28;;;24.90;99.90;;;;;;5031910;28;20039;-83
2021/07/31 09:59:23;;;;;;;4.57;2.28;;;25.00;99.90;;;;;;5031308;28;20122;-84
2021/07/31 10:02:03;;;;;;;5.70;2.30;;;24.80;99.90;;;;;;5032887;28;20109;-83
2021/07/31 10:04:32;;;;;;;3.65;1.98;;;24.40;99.90;;;;;;5034608;28;20026;-84
2021/07/31 10:07:02;;;;;;;5.18;2.13;;;24.40;99.90;;;;;;5034492;28;20029;-83
2021/07/31 10:09:28;;;;;;;7.05;2.05;;;24.50;99.90;;;;;;5032024;28;20044;-84
2021/07/31 10:11:55;;;;;;;3.92;1.92;;;24.40;99.90;;;;;;5031718;28;20025;-84
2021/07/31 10:14:23;;;;;;;2.92;2.15;;;24.40;99.90;;;;;;5031986;28;20037;-84
2021/07/31 10:16:49;;;;;;;6.40;2.28;;;24.60;99.90;;;;;;5032652;28;20033;-83
2021/07/31 10:19:16;;;;;;;6.63;2.33;;;25.00;99.90;;;;;;5037904;28;20048;-83
2021/07/31 10:21:41;;;;;;;5.68;2.20;;;25.40;99.90;;;;;;5035825;28;20053;-84
2021/07/31 10:24:08;;;;;;;3.50;2.10;;;25.30;99.90;;;;;;5036493;28;20111;-83
2021/07/31 10:26:35;;;;;;;3.95;2.28;;;25.30;99.90;;;;;;5035908;28;20025;-84
2021/07/31 10:29:29;;;;;;;5.97;2.38;;;25.40;99.90;;;;;;5032357;28;20112;-84
2021/07/31 10:31:55;;;;;;;4.75;1.90;;;25.60;99.90;;;;;;5015735;28;20422;-84
2021/07/31 10:34:46;;;;;;;3.58;2.10;;;25.90;99.90;;;;;;5038093;28;20029;-84
2021/07/31 10:37:34;;;;;;;5.50;2.58;;;26.30;99.90;;;;;;5036303;28;20557;-84
2021/07/31 10:40:11;;;;;;;4.57;2.17;;;27.10;99.90;;;;;;5035600;28;20037;-83
2021/07/31 10:42:52;;;;;;;3.95;1.98;;;27.20;99.90;;;;;;5036206;28;20045;-83
2021/07/31 10:45:25;;;;;;;3.85;1.88;;;26.40;99.90;;;;;;5035785;28;20087;-83
2021/07/31 10:48:05;;;;;;;5.38;2.00;;;25.90;99.90;;;;;;5035286;28;20106;-84
2021/07/31 10:50:31;;;;;;;4.38;2.40;;;25.40;99.90;;;;;;5035388;28;20029;-83
2021/07/31 10:53:14;;;;;;;4.20;2.00;;;25.30;99.90;;;;;;5031201;28;20022;-83
2021/07/31 10:55:42;;;;;;;6.65;1.95;;;25.10;99.90;;;;;;5032859;28;20421;-83
2021/07/31 10:58:08;;;;;;;4.43;1.98;;;24.90;99.90;;;;;;5035470;28;20080;-83
2021/07/31 11:00:44;;;;;;;4.68;2.08;;;24.80;99.90;;;;;;5030943;28;20041;-83
2021/07/31 11:03:15;;;;;;;4.95;2.17;;;25.00;99.90;;;;;;5035689;28;20116;-83
2021/07/31 11:05:58;;;;;;;5.43;1.98;;;24.90;99.90;;;;;;5025978;28;20024;-82
2021/07/31 11:08:28;;;;;;;6.07;2.10;;;25.20;99.90;;;;;;5037479;28;20484;-80
2021/07/31 11:10:55;;;;;;;6.32;2.45;;;25.60;99.90;;;;;;5044489;28;20046;-82
2021/07/31 11:13:21;;;;;;;6.05;2.63;;;26.00;99.90;;;;;;5042630;28;20098;-83
2021/07/31 11:15:55;;;;;;;5.88;2.85;;;25.70;99.90;;;;;;5033213;28;20482;-82
2021/07/31 11:18:25;;;;;;;3.10;2.20;;;25.50;99.90;;;;;;5033238;28;20077;-82
2021/07/31 11:20:51;;;;;;;5.82;2.70;;;25.20;99.90;;;;;;5034554;28;20072;-82
2021/07/31 11:23:18;;;;;;;5.40;2.60;;;25.10;99.90;;;;;;5032929;28;20505;-81
2021/07/31 11:25:45;;;;;;;5.07;3.03;;;25.20;99.90;;;;;;5036223;28;20489;-83
2021/07/31 11:28:11;;;;;;;6.07;3.42;;;25.30;99.90;;;;;;5036041;28;20371;-83
2021/07/31 11:30:38;;;;;;;4.38;2.58;;;25.40;99.90;;;;;;5033069;28;20394;-83
2021/07/31 11:33:17;;;;;;;5.22;3.05;;;25.40;99.90;;;;;;5039046;28;20022;-83
2021/07/31 11:35:43;;;;;;;6.07;2.45;;;25.30;99.90;;;;;;5040420;28;20032;-83
2021/07/31 11:38:35;;;;;;;4.93;2.42;;;25.40;99.90;;;;;;5039937;28;20421;-83
2021/07/31 11:41:08;;;;;;;3.25;2.55;;;25.60;99.90;;;;;;5015760;28;20033;-87
2021/07/31 11:43:50;;;;;;;5.43;2.30;;;25.50;99.90;;;;;;5033914;28;20114;-82
2021/07/31 11:46:43;;;;;;;6.40;2.42;;;25.70;99.90;;;;;;5035353;28;20024;-82
2021/07/31 11:49:27;;;;;;;4.72;2.10;;;26.30;99.90;;;;;;5038940;28;20029;-85
2021/07/31 11:51:55;;;;;;;5.95;2.20;;;27.20;99.90;;;;;;5034503;28;20485;-83
2021/07/31 11:54:20;;;;;;;4.18;2.40;;;27.90;99.90;;;;;;5033362;28;20022;-83
2021/07/31 11:56:47;;;;;;;4.28;2.20;;;28.80;99.90;;;;;;5032590;28;20474;-84
2021/07/31 11:59:24;;;;;;;3.42;2.10;;;29.00;99.90;;;;;;5032667;28;20112;-82
2021/07/31 12:01:52;;;;;;;4.00;2.08;;;30.30;99.90;;;;;;5030456;28;20485;-84
2021/07/31 12:04:44;;;;;;;5.32;2.20;;;33.40;99.90;;;;;;5035649;28;20584;-84
2021/07/31 12:07:21;;;;;;;4.00;2.20;;;31.70;99.90;;;;;;5034448;28;20029;-83
2021/07/31 12:10:10;;;;;;;2.17;1.90;;;32.80;99.90;;;;;;5045047;28;20560;-83
2021/07/31 12:12:39;;;;;;;2.55;1.73;;;34.80;99.90;;;;;;5036323;28;20119;-82
2021/07/31 12:15:07;;;;;;;3.92;2.00;;;35.50;99.90;;;;;;5036001;28;20056;-84
2021/07/31 12:17:33;;;;;;;3.38;1.90;;;34.40;99.90;;;;;;5044687;28;20052;-83
2021/07/31 12:19:59;;;;;;;4.78;1.90;;;34.50;99.90;;;;;;5029240;28;20022;-83
2021/07/31 12:22:30;;;;;;;6.28;2.00;;;36.50;99.90;;;;;;5036259;28;20104;-84
2021/07/31 12:25:08;;;;;;;2.97;2.00;;;37.10;99.90;;;;;;5035571;28;20022;-83
2021/07/31 12:27:53;;;;;;;7.32;2.10;;;36.00;99.90;;;;;;5037953;28;20036;-84
2021/07/31 12:30:29;;;;;;;5.55;2.25;;;34.10;99.90;;;;;;5038495;28;20049;-84
2021/07/31 12:32:57;;;;;;;4.00;1.80;;;33.70;99.90;;;;;;5032263;28;20029;-84
2021/07/31 12:35:39;;;;;;;3.35;1.77;;;32.70;99.90;;;;;;5031160;28;20032;-83
2021/07/31 12:38:17;;;;;;;3.38;1.80;;;32.20;99.90;;;;;;5032341;28;20406;-84
2021/07/31 12:40:43;;;;;;;6.20;2.03;;;33.10;99.90;;;;;;5044026;28;20028;-84
2021/07/31 12:43:14;;;;;;;3.38;1.88;;;33.60;99.90;;;;;;5043474;28;20036;-83
2021/07/31 12:45:43;;;;;;;3.28;1.73;;;34.00;99.90;;;;;;5034769;28;20112;-84
2021/07/31 12:48:10;;;;;;;3.60;1.80;;;35.90;99.90;;;;;;5033526;28;20065;-84
2021/07/31 12:50:37;;;;;;;3.80;1.75;;;36.80;99.90;;;;;;5026013;28;20040;-83
2021/07/31 12:53:03;;;;;;;3.38;1.95;;;38.00;99.90;;;;;;5030349;28;20497;-83